sensor_id;sensor_type;location;lat;lon;timestamp;pressure;altitude;pressure_sealevel;temperature;humidity
30724;BME280;17473;52.286;20.930;2023-09-19T00:01:00;99607.28;;;20.11;87.39
30724;BME280;17473;52.286;20.930;2023-09-19T00:03:27;99614.59;;;20.03;87.70
30724;BME280;17473;52.286;20.930;2023-09-19T00:05:57;99604.63;;;20.11;87.75
30724;BME280;17473;52.286;20.930;2023-09-19T00:08:24;99601.88;;;20.14;87.11
30724;BME280;17473;52.286;20.930;2023-09-19T00:10:51;99607.91;;;20.27;86.79
30724;BME280;17473;52.286;20.930;2023-09-19T00:13:21;99603.59;;;20.20;87.19
30724;BME280;17473;52.286;20.930;2023-09-19T00:15:49;99603.63;;;20.17;86.95
30724;BME280;17473;52.286;20.930;2023-09-19T00:18:20;99600.00;;;20.20;86.82
30724;BME280;17473;52.286;20.930;2023-09-19T00:20:49;99605.34;;;20.21;86.73
30724;BME280;17473;52.286;20.930;2023-09-19T00:23:19;99608.81;;;20.26;86.24
30724;BME280;17473;52.286;20.930;2023-09-19T00:25:48;99599.06;;;20.22;86.96
30724;BME280;17473;52.286;20.930;2023-09-19T00:28:15;99594.63;;;20.20;86.64
30724;BME280;17473;52.286;20.930;2023-09-19T00:30:45;99599.13;;;20.19;86.96
30724;BME280;17473;52.286;20.930;2023-09-19T00:33:17;99594.75;;;20.13;87.08
30724;BME280;17473;52.286;20.930;2023-09-19T00:35:53;99600.00;;;20.20;86.31
30724;BME280;17473;52.286;20.930;2023-09-19T00:38:21;99602.97;;;20.04;87.82
30724;BME280;17473;52.286;20.930;2023-09-19T00:40:54;99596.69;;;20.05;87.50
30724;BME280;17473;52.286;20.930;2023-09-19T00:43:26;99585.25;;;19.95;87.86
30724;BME280;17473;52.286;20.930;2023-09-19T00:46:03;99581.66;;;19.98;87.74
30724;BME280;17473;52.286;20.930;2023-09-19T00:48:40;99587.75;;;20.06;87.56
30724;BME280;17473;52.286;20.930;2023-09-19T00:51:11;99584.31;;;19.98;88.12
30724;BME280;17473;52.286;20.930;2023-09-19T00:53:41;99584.25;;;20.02;87.70
30724;BME280;17473;52.286;20.930;2023-09-19T00:56:14;99594.75;;;20.13;86.97
30724;BME280;17473;52.286;20.930;2023-09-19T00:58:41;99580.91;;;19.88;88.08
30724;BME280;17473;52.286;20.930;2023-09-19T01:01:09;99590.63;;;19.94;88.24
30724;BME280;17473;52.286;20.930;2023-09-19T01:03:38;99585.19;;;19.98;87.55
30724;BME280;17473;52.286;20.930;2023-09-19T01:06:07;99582.56;;;19.97;88.03
30724;BME280;17473;52.286;20.930;2023-09-19T01:08:36;99576.44;;;19.89;88.36
30724;BME280;17473;52.286;20.930;2023-09-19T01:11:19;99570.19;;;19.90;88.27
30724;BME280;17473;52.286;20.930;2023-09-19T01:20:11;99563.81;;;19.97;87.86
30724;BME280;17473;52.286;20.930;2023-09-19T01:23:23;99559.66;;;19.76;88.91
30724;BME280;17473;52.286;20.930;2023-09-19T01:29:39;99557.31;;;19.55;89.98
30724;BME280;17473;52.286;20.930;2023-09-19T01:32:08;99553.00;;;19.47;90.96
30724;BME280;17473;52.286;20.930;2023-09-19T01:34:58;99551.94;;;19.55;90.62
30724;BME280;17473;52.286;20.930;2023-09-19T01:37:27;99550.88;;;19.67;90.04
30724;BME280;17473;52.286;20.930;2023-09-19T01:39:59;99539.34;;;19.62;90.29
30724;BME280;17473;52.286;20.930;2023-09-19T01:43:05;99546.59;;;19.55;90.30
30724;BME280;17473;52.286;20.930;2023-09-19T01:46:12;99536.75;;;19.58;90.33
30724;BME280;17473;52.286;20.930;2023-09-19T01:52:02;99535.13;;;19.49;90.85
30724;BME280;17473;52.286;20.930;2023-09-19T01:54:47;99527.75;;;19.63;90.03
30724;BME280;17473;52.286;20.930;2023-09-19T01:57:40;99525.25;;;19.52;89.66
30724;BME280;17473;52.286;20.930;2023-09-19T02:00:12;99530.50;;;19.59;89.67
30724;BME280;17473;52.286;20.930;2023-09-19T02:02:45;99529.69;;;19.53;89.66
30724;BME280;17473;52.286;20.930;2023-09-19T02:05:23;99533.13;;;19.60;89.52
30724;BME280;17473;52.286;20.930;2023-09-19T02:07:56;99530.56;;;19.54;89.58
30724;BME280;17473;52.286;20.930;2023-09-19T02:10:25;99517.16;;;19.55;89.93
30724;BME280;17473;52.286;20.930;2023-09-19T02:12:53;99533.06;;;19.66;89.08
30724;BME280;17473;52.286;20.930;2023-09-19T02:15:20;99525.94;;;19.65;89.14
30724;BME280;17473;52.286;20.930;2023-09-19T02:17:47;99525.94;;;19.65;89.25
30724;BME280;17473;52.286;20.930;2023-09-19T02:20:14;99518.91;;;19.57;89.24
30724;BME280;17473;52.286;20.930;2023-09-19T02:22:43;99519.78;;;19.59;89.44
30724;BME280;17473;52.286;20.930;2023-09-19T02:25:11;99511.91;;;19.49;89.16
30724;BME280;17473;52.286;20.930;2023-09-19T02:27:41;99513.63;;;19.52;89.63
30724;BME280;17473;52.286;20.930;2023-09-19T02:30:09;99506.47;;;19.54;89.39
30724;BME280;17473;52.286;20.930;2023-09-19T02:32:36;99507.34;;;19.54;89.72
30724;BME280;17473;52.286;20.930;2023-09-19T02:35:07;99509.13;;;19.55;89.40
30724;BME280;17473;52.286;20.930;2023-09-19T02:37:34;99502.31;;;19.36;89.67
30724;BME280;17473;52.286;20.930;2023-09-19T02:40:02;99497.78;;;19.41;90.24
30724;BME280;17473;52.286;20.930;2023-09-19T02:42:29;99479.28;;;19.26;90.41
30724;BME280;17473;52.286;20.930;2023-09-19T02:44:57;99492.47;;;19.38;90.27
30724;BME280;17473;52.286;20.930;2023-09-19T02:47:24;99501.47;;;19.34;90.87
30724;BME280;17473;52.286;20.930;2023-09-19T02:49:51;99492.50;;;19.36;90.67
30724;BME280;17473;52.286;20.930;2023-09-19T02:52:19;99490.75;;;19.32;90.92
30724;BME280;17473;52.286;20.930;2023-09-19T02:54:46;99486.50;;;19.20;91.12
30724;BME280;17473;52.286;20.930;2023-09-19T02:57:13;99493.63;;;19.21;91.40
30724;BME280;17473;52.286;20.930;2023-09-19T02:59:42;99496.28;;;19.21;91.73
30724;BME280;17473;52.286;20.930;2023-09-19T03:02:10;99489.94;;;19.29;91.23
30724;BME280;17473;52.286;20.930;2023-09-19T03:04:37;99489.97;;;19.27;91.51
30724;BME280;17473;52.286;20.930;2023-09-19T03:07:05;99484.41;;;19.39;90.54
30724;BME280;17473;52.286;20.930;2023-09-19T03:09:33;99484.78;;;19.16;91.72
30724;BME280;17473;52.286;20.930;2023-09-19T03:12:00;99473.34;;;19.08;92.30
30724;BME280;17473;52.286;20.930;2023-09-19T03:14:27;99481.31;;;19.10;92.00
30724;BME280;17473;52.286;20.930;2023-09-19T03:16:57;99484.09;;;19.03;92.73
30724;BME280;17473;52.286;20.930;2023-09-19T03:19:24;99480.53;;;19.03;92.96
30724;BME280;17473;52.286;20.930;2023-09-19T03:21:53;99479.84;;;18.87;93.20
30724;BME280;17473;52.286;20.930;2023-09-19T03:24:20;99471.03;;;18.80;94.22
30724;BME280;17473;52.286;20.930;2023-09-19T03:26:47;99478.09;;;18.86;94.51
30724;BME280;17473;52.286;20.930;2023-09-19T03:29:14;99479.84;;;18.87;93.91
30724;BME280;17473;52.286;20.930;2023-09-19T03:31:42;99475.31;;;18.93;93.53
30724;BME280;17473;52.286;20.930;2023-09-19T03:34:09;99471.63;;;19.02;93.10
30724;BME280;17473;52.286;20.930;2023-09-19T03:36:36;99467.19;;;19.01;92.68
30724;BME280;17473;52.286;20.930;2023-09-19T03:39:04;99474.41;;;18.95;93.81
30724;BME280;17473;52.286;20.930;2023-09-19T03:41:32;99461.91;;;18.97;93.45
30724;BME280;17473;52.286;20.930;2023-09-19T03:44:00;99465.38;;;19.03;93.11
30724;BME280;17473;52.286;20.930;2023-09-19T03:46:27;99459.88;;;19.11;92.88
30724;BME280;17473;52.286;20.930;2023-09-19T03:48:54;99460.03;;;19.02;93.32
30724;BME280;17473;52.286;20.930;2023-09-19T03:51:22;99459.13;;;19.03;92.73
30724;BME280;17473;52.286;20.930;2023-09-19T03:53:49;99465.47;;;18.96;93.23
30724;BME280;17473;52.286;20.930;2023-09-19T03:56:17;99469.00;;;18.99;93.02
30724;BME280;17473;52.286;20.930;2023-09-19T03:58:44;99466.94;;;19.17;91.98
30724;BME280;17473;52.286;20.930;2023-09-19T04:01:11;99459.16;;;19.01;91.96
30724;BME280;17473;52.286;20.930;2023-09-19T04:03:40;99450.38;;;18.90;93.30
30724;BME280;17473;52.286;20.930;2023-09-19T04:06:15;99453.69;;;19.09;92.16
30724;BME280;17473;52.286;20.930;2023-09-19T04:08:43;99448.44;;;19.04;92.35
30724;BME280;17473;52.286;20.930;2023-09-19T04:11:11;99441.31;;;19.02;92.47
30724;BME280;17473;52.286;20.930;2023-09-19T04:13:38;99430.56;;;19.05;92.17
30724;BME280;17473;52.286;20.930;2023-09-19T04:16:06;99431.50;;;19.02;92.09
30724;BME280;17473;52.286;20.930;2023-09-19T04:18:37;99435.06;;;19.03;92.22
30724;BME280;17473;52.286;20.930;2023-09-19T04:21:05;99437.75;;;19.01;92.17
30724;BME280;17473;52.286;20.930;2023-09-19T04:23:33;99441.16;;;19.11;91.91
30724;BME280;17473;52.286;20.930;2023-09-19T04:26:00;99441.00;;;19.22;91.18
30724;BME280;17473;52.286;20.930;2023-09-19T04:28:27;99443.00;;;19.07;91.70
30724;BME280;17473;52.286;20.930;2023-09-19T04:30:54;99432.63;;;18.86;93.86
30724;BME280;17473;52.286;20.930;2023-09-19T04:33:22;99431.50;;;19.01;92.63
30724;BME280;17473;52.286;20.930;2023-09-19T04:35:50;99422.50;;;19.06;92.85
30724;BME280;17473;52.286;20.930;2023-09-19T04:38:20;99423.34;;;19.10;93.03
30724;BME280;17473;52.286;20.930;2023-09-19T04:40:48;99432.81;;;19.31;91.34
30724;BME280;17473;52.286;20.930;2023-09-19T04:43:15;99423.41;;;19.05;92.77
30724;BME280;17473;52.286;20.930;2023-09-19T04:45:43;99427.78;;;19.11;92.63
30724;BME280;17473;52.286;20.930;2023-09-19T04:48:10;99416.94;;;19.20;92.35
30724;BME280;17473;52.286;20.930;2023-09-19T04:50:37;99416.66;;;19.37;90.99
30724;BME280;17473;52.286;20.930;2023-09-19T04:53:05;99424.19;;;19.12;92.10
30724;BME280;17473;52.286;20.930;2023-09-19T04:55:34;99422.34;;;19.17;91.94
30724;BME280;17473;52.286;20.930;2023-09-19T04:58:01;99430.25;;;19.23;91.47
30724;BME280;17473;52.286;20.930;2023-09-19T05:00:29;99424.66;;;19.39;91.05
30724;BME280;17473;52.286;20.930;2023-09-19T05:02:57;99423.19;;;19.21;91.95
30724;BME280;17473;52.286;20.930;2023-09-19T05:05:25;99417.69;;;19.29;91.50
30724;BME280;17473;52.286;20.930;2023-09-19T05:07:53;99411.91;;;19.52;89.95
30724;BME280;17473;52.286;20.930;2023-09-19T05:10:23;99413.22;;;19.79;88.62
30724;BME280;17473;52.286;20.930;2023-09-19T05:12:53;99409.03;;;20.11;85.96
30724;BME280;17473;52.286;20.930;2023-09-19T05:15:20;99415.56;;;20.40;84.28
30724;BME280;17473;52.286;20.930;2023-09-19T05:17:51;99417.84;;;20.59;83.90
30724;BME280;17473;52.286;20.930;2023-09-19T05:20:24;99421.84;;;21.18;80.26
30724;BME280;17473;52.286;20.930;2023-09-19T05:23:03;99429.97;;;20.77;81.46
30724;BME280;17473;52.286;20.930;2023-09-19T05:25:33;99422.28;;;20.60;82.74
30724;BME280;17473;52.286;20.930;2023-09-19T05:30:33;99406.09;;;20.22;84.25
30724;BME280;17473;52.286;20.930;2023-09-19T05:33:00;99412.69;;;20.07;85.18
30724;BME280;17473;52.286;20.930;2023-09-19T05:35:27;99416.06;;;20.17;84.89
30724;BME280;17473;52.286;20.930;2023-09-19T05:37:54;99416.19;;;20.09;85.66
30724;BME280;17473;52.286;20.930;2023-09-19T05:40:23;99417.13;;;20.08;85.37
30724;BME280;17473;52.286;20.930;2023-09-19T05:42:51;99413.53;;;20.09;85.59
30724;BME280;17473;52.286;20.930;2023-09-19T05:45:18;99413.47;;;20.12;85.81
30724;BME280;17473;52.286;20.930;2023-09-19T05:47:52;99404.72;;;20.04;85.65
30724;BME280;17473;52.286;20.930;2023-09-19T05:50:23;99405.47;;;20.11;85.19
30724;BME280;17473;52.286;20.930;2023-09-19T05:52:53;99424.72;;;20.30;83.83
30724;BME280;17473;52.286;20.930;2023-09-19T05:55:20;99415.31;;;20.51;82.74
30724;BME280;17473;52.286;20.930;2023-09-19T05:57:52;99430.13;;;20.68;82.58
30724;BME280;17473;52.286;20.930;2023-09-19T06:00:21;99428.44;;;21.03;80.91
30724;BME280;17473;52.286;20.930;2023-09-19T06:02:58;99435.94;;;21.26;78.93
30724;BME280;17473;52.286;20.930;2023-09-19T06:05:26;99432.94;;;21.38;79.08
30724;BME280;17473;52.286;20.930;2023-09-19T06:07:54;99449.81;;;21.43;78.23
30724;BME280;17473;52.286;20.930;2023-09-19T06:10:22;99445.16;;;21.86;76.61
30724;BME280;17473;52.286;20.930;2023-09-19T06:12:50;99438.22;;;23.01;71.12
30724;BME280;17473;52.286;20.930;2023-09-19T06:15:17;99435.44;;;23.04;70.09
30724;BME280;17473;52.286;20.930;2023-09-19T06:17:52;99437.25;;;22.73;70.47
30724;BME280;17473;52.286;20.930;2023-09-19T06:20:23;99427.78;;;22.30;72.57
30724;BME280;17473;52.286;20.930;2023-09-19T06:22:53;99442.34;;;22.23;72.92
30724;BME280;17473;52.286;20.930;2023-09-19T06:25:21;99443.75;;;22.66;71.38
30724;BME280;17473;52.286;20.930;2023-09-19T06:27:53;99453.22;;;23.88;67.44
30724;BME280;17473;52.286;20.930;2023-09-19T06:30:23;99447.59;;;24.91;62.39
30724;BME280;17473;52.286;20.930;2023-09-19T06:32:57;99454.09;;;24.40;63.72
30724;BME280;17473;52.286;20.930;2023-09-19T06:35:26;99454.97;;;23.89;65.38
30724;BME280;17473;52.286;20.930;2023-09-19T06:37:54;99460.09;;;23.72;66.57
30724;BME280;17473;52.286;20.930;2023-09-19T06:40:21;99455.97;;;23.62;67.06
30724;BME280;17473;52.286;20.930;2023-09-19T06:42:51;99448.25;;;23.51;67.52
30724;BME280;17473;52.286;20.930;2023-09-19T06:45:20;99461.09;;;23.69;66.53
30724;BME280;17473;52.286;20.930;2023-09-19T06:47:50;99458.38;;;24.69;62.88
30724;BME280;17473;52.286;20.930;2023-09-19T06:50:21;99455.22;;;24.81;61.67
30724;BME280;17473;52.286;20.930;2023-09-19T06:52:52;99458.47;;;24.42;62.87
30724;BME280;17473;52.286;20.930;2023-09-19T06:55:22;99460.75;;;26.08;58.09
30724;BME280;17473;52.286;20.930;2023-09-19T06:57:52;99457.72;;;25.94;57.51
30724;BME280;17473;52.286;20.930;2023-09-19T07:00:21;99461.03;;;25.80;57.26
30724;BME280;17473;52.286;20.930;2023-09-19T07:03:01;99454.25;;;27.27;53.55
30724;BME280;17473;52.286;20.930;2023-09-19T07:05:28;99462.19;;;27.49;51.67
30724;BME280;17473;52.286;20.930;2023-09-19T07:07:57;99467.34;;;27.37;52.17
30724;BME280;17473;52.286;20.930;2023-09-19T07:10:28;99471.38;;;27.47;51.73
30724;BME280;17473;52.286;20.930;2023-09-19T07:13:06;99466.72;;;27.12;52.84
30724;BME280;17473;52.286;20.930;2023-09-19T07:15:38;99477.88;;;25.87;55.75
30724;BME280;17473;52.286;20.930;2023-09-19T07:18:08;99485.91;;;25.88;56.37
30724;BME280;17473;52.286;20.930;2023-09-19T07:20:38;99480.44;;;25.69;57.24
30724;BME280;17473;52.286;20.930;2023-09-19T07:23:05;99488.59;;;25.47;57.84
30724;BME280;17473;52.286;20.930;2023-09-19T07:25:33;99486.06;;;25.20;58.64
30724;BME280;17473;52.286;20.930;2023-09-19T07:28:02;99489.50;;;25.68;57.53
30724;BME280;17473;52.286;20.930;2023-09-19T07:30:30;99491.41;;;26.07;56.74
30724;BME280;17473;52.286;20.930;2023-09-19T07:32:57;99480.56;;;26.68;54.58
30724;BME280;17473;52.286;20.930;2023-09-19T07:35:24;99483.56;;;26.62;54.38
30724;BME280;17473;52.286;20.930;2023-09-19T07:37:52;99500.56;;;27.03;53.59
30724;BME280;17473;52.286;20.930;2023-09-19T07:40:20;99495.13;;;27.23;52.66
30724;BME280;17473;52.286;20.930;2023-09-19T07:42:48;99491.63;;;27.01;53.22
30724;BME280;17473;52.286;20.930;2023-09-19T07:45:16;99500.47;;;26.67;54.39
30724;BME280;17473;52.286;20.930;2023-09-19T07:47:48;99511.34;;;25.84;56.44
30724;BME280;17473;52.286;20.930;2023-09-19T07:50:18;99519.91;;;25.51;57.97
30724;BME280;17473;52.286;20.930;2023-09-19T07:52:49;99516.81;;;25.40;58.34
30724;BME280;17473;52.286;20.930;2023-09-19T07:55:20;99519.16;;;25.47;58.29
30724;BME280;17473;52.286;20.930;2023-09-19T07:57:52;99523.13;;;25.39;58.67
30724;BME280;17473;52.286;20.930;2023-09-19T08:00:19;99518.09;;;25.29;59.23
30724;BME280;17473;52.286;20.930;2023-09-19T08:02:46;99524.00;;;24.93;60.81
30724;BME280;17473;52.286;20.930;2023-09-19T08:05:24;99516.34;;;24.82;61.27
30724;BME280;17473;52.286;20.930;2023-09-19T08:07:52;99513.75;;;24.79;61.54
30724;BME280;17473;52.286;20.930;2023-09-19T08:10:21;99517.34;;;25.02;60.99
30724;BME280;17473;52.286;20.930;2023-09-19T08:12:49;99520.63;;;25.10;60.82
30724;BME280;17473;52.286;20.930;2023-09-19T08:15:23;99521.31;;;24.93;61.29
30724;BME280;17473;52.286;20.930;2023-09-19T08:17:50;99523.47;;;24.83;61.57
30724;BME280;17473;52.286;20.930;2023-09-19T08:20:17;99527.50;;;24.48;63.10
30724;BME280;17473;52.286;20.930;2023-09-19T08:25:16;99546.25;;;24.76;62.71
30724;BME280;17473;52.286;20.930;2023-09-19T08:27:47;99539.75;;;24.57;63.25
30724;BME280;17473;52.286;20.930;2023-09-19T08:30:16;99547.63;;;24.63;63.20
30724;BME280;17473;52.286;20.930;2023-09-19T08:32:45;99548.25;;;24.95;61.96
30724;BME280;17473;52.286;20.930;2023-09-19T08:35:13;99546.31;;;25.21;61.05
30724;BME280;17473;52.286;20.930;2023-09-19T08:37:43;99545.63;;;25.39;60.32
30724;BME280;17473;52.286;20.930;2023-09-19T08:40:12;99551.66;;;25.46;60.27
30724;BME280;17473;52.286;20.930;2023-09-19T08:42:55;99543.25;;;25.30;60.62
30724;BME280;17473;52.286;20.930;2023-09-19T08:45:24;99552.34;;;25.05;61.60
30724;BME280;17473;52.286;20.930;2023-09-19T08:48:17;99547.97;;;24.53;63.54
30724;BME280;17473;52.286;20.930;2023-09-19T08:56:10;99539.06;;;24.51;64.35
30724;BME280;17473;52.286;20.930;2023-09-19T08:58:48;99537.72;;;24.63;63.83
30724;BME280;17473;52.286;20.930;2023-09-19T09:01:19;99536.94;;;24.60;64.35
30724;BME280;17473;52.286;20.930;2023-09-19T09:03:54;99539.91;;;24.52;65.33
30724;BME280;17473;52.286;20.930;2023-09-19T09:06:23;99538.72;;;24.61;64.78
30724;BME280;17473;52.286;20.930;2023-09-19T09:08:52;99538.34;;;24.46;65.73
30724;BME280;17473;52.286;20.930;2023-09-19T09:11:20;99538.34;;;23.96;68.01
30724;BME280;17473;52.286;20.930;2023-09-19T09:13:48;99531.03;;;23.99;68.43
30724;BME280;17473;52.286;20.930;2023-09-19T09:16:15;99555.31;;;23.71;70.32
30724;BME280;17473;52.286;20.930;2023-09-19T09:18:46;99563.69;;;23.35;74.09
30724;BME280;17473;52.286;20.930;2023-09-19T09:21:21;99565.19;;;23.13;77.23
30724;BME280;17473;52.286;20.930;2023-09-19T09:23:49;99563.38;;;23.14;78.07
30724;BME280;17473;52.286;20.930;2023-09-19T09:26:41;99568.50;;;22.93;79.34
30724;BME280;17473;52.286;20.930;2023-09-19T09:29:12;99586.66;;;22.87;80.33
30724;BME280;17473;52.286;20.930;2023-09-19T09:31:45;99593.78;;;22.88;81.31
30724;BME280;17473;52.286;20.930;2023-09-19T09:34:13;99593.16;;;22.78;82.72
30724;BME280;17473;52.286;20.930;2023-09-19T09:36:41;99601.50;;;22.69;83.82
30724;BME280;17473;52.286;20.930;2023-09-19T09:39:08;99587.75;;;22.79;82.76
30724;BME280;17473;52.286;20.930;2023-09-19T09:41:46;99588.66;;;22.47;85.92
30724;BME280;17473;52.286;20.930;2023-09-19T09:44:18;99592.94;;;22.19;89.00
30724;BME280;17473;52.286;20.930;2023-09-19T09:46:48;99592.19;;;22.14;89.20
30724;BME280;17473;52.286;20.930;2023-09-19T09:49:27;99603.47;;;21.94;91.56
30724;BME280;17473;52.286;20.930;2023-09-19T09:52:03;99596.75;;;21.76;92.46
30724;BME280;17473;52.286;20.930;2023-09-19T09:54:38;99617.75;;;21.60;94.56
30724;BME280;17473;52.286;20.930;2023-09-19T09:57:08;99614.97;;;21.63;93.58
30724;BME280;17473;52.286;20.930;2023-09-19T10:02:28;99612.91;;;21.75;93.69
30724;BME280;17473;52.286;20.930;2023-09-19T10:04:57;99612.56;;;21.51;94.94
30724;BME280;17473;52.286;20.930;2023-09-19T10:07:51;99607.28;;;21.46;96.43
30724;BME280;17473;52.286;20.930;2023-09-19T10:10:37;99599.03;;;21.54;95.63
30724;BME280;17473;52.286;20.930;2023-09-19T10:13:13;99594.25;;;21.68;95.04
30724;BME280;17473;52.286;20.930;2023-09-19T10:15:43;99589.66;;;21.73;94.93
30724;BME280;17473;52.286;20.930;2023-09-19T10:18:23;99595.34;;;21.96;92.67
30724;BME280;17473;52.286;20.930;2023-09-19T10:20:51;99603.25;;;22.03;93.30
30724;BME280;17473;52.286;20.930;2023-09-19T10:23:21;99599.00;;;21.93;94.45
30724;BME280;17473;52.286;20.930;2023-09-19T10:25:53;99609.53;;;22.02;94.30
30724;BME280;17473;52.286;20.930;2023-09-19T10:28:21;99614.47;;;21.83;95.00
30724;BME280;17473;52.286;20.930;2023-09-19T10:31:09;99610.97;;;21.81;94.76
30724;BME280;17473;52.286;20.930;2023-09-19T10:33:42;99610.72;;;21.91;93.58
30724;BME280;17473;52.286;20.930;2023-09-19T10:36:10;99608.31;;;22.14;92.92
30724;BME280;17473;52.286;20.930;2023-09-19T10:38:39;99603.69;;;22.21;93.06
30724;BME280;17473;52.286;20.930;2023-09-19T10:41:10;99616.34;;;22.50;90.44
30724;BME280;17473;52.286;20.930;2023-09-19T10:43:41;99615.06;;;22.65;88.64
30724;BME280;17473;52.286;20.930;2023-09-19T10:46:12;99611.38;;;22.68;89.23
30724;BME280;17473;52.286;20.930;2023-09-19T10:48:40;99621.91;;;22.44;90.64
30724;BME280;17473;52.286;20.930;2023-09-19T10:51:15;99619.91;;;22.53;89.31
30724;BME280;17473;52.286;20.930;2023-09-19T10:56:29;99623.69;;;22.45;89.41
30724;BME280;17473;52.286;20.930;2023-09-19T10:59:17;99623.47;;;22.53;88.93
30724;BME280;17473;52.286;20.930;2023-09-19T11:01:51;99641.97;;;22.65;88.84
30724;BME280;17473;52.286;20.930;2023-09-19T11:04:23;99639.03;;;22.73;88.53
30724;BME280;17473;52.286;20.930;2023-09-19T11:07:13;99636.78;;;22.58;88.80
30724;BME280;17473;52.286;20.930;2023-09-19T11:09:51;99631.56;;;22.51;89.70
30724;BME280;17473;52.286;20.930;2023-09-19T11:15:03;99632.44;;;22.85;88.50
30724;BME280;17473;52.286;20.930;2023-09-19T11:17:41;99624.50;;;22.80;89.57
30724;BME280;17473;52.286;20.930;2023-09-19T11:30:51;99622.59;;;23.16;86.77
30724;BME280;17473;52.286;20.930;2023-09-19T11:33:24;99619.34;;;23.34;86.30
30724;BME280;17473;52.286;20.930;2023-09-19T11:36:11;99614.91;;;23.33;85.22
30724;BME280;17473;52.286;20.930;2023-09-19T11:46:28;99635.25;;;23.12;85.80
30724;BME280;17473;52.286;20.930;2023-09-19T11:49:08;99632.84;;;23.03;85.77
30724;BME280;17473;52.286;20.930;2023-09-19T11:51:41;99638.50;;;22.92;86.35
30724;BME280;17473;52.286;20.930;2023-09-19T11:54:13;99635.59;;;23.00;87.17
30724;BME280;17473;52.286;20.930;2023-09-19T11:56:52;99642.97;;;22.93;86.84
30724;BME280;17473;52.286;20.930;2023-09-19T11:59:22;99632.38;;;22.87;86.96
30724;BME280;17473;52.286;20.930;2023-09-19T12:01:58;99639.97;;;23.04;87.28
30724;BME280;17473;52.286;20.930;2023-09-19T12:04:41;99649.56;;;23.12;87.08
30724;BME280;17473;52.286;20.930;2023-09-19T12:07:15;99649.91;;;23.02;88.43
30724;BME280;17473;52.286;20.930;2023-09-19T12:09:45;99652.53;;;23.03;89.35
30724;BME280;17473;52.286;20.930;2023-09-19T12:12:21;99648.75;;;23.10;87.91
30724;BME280;17473;52.286;20.930;2023-09-19T12:14:50;99655.03;;;23.11;88.02
30724;BME280;17473;52.286;20.930;2023-09-19T12:17:18;99648.59;;;23.15;87.21
30724;BME280;17473;52.286;20.930;2023-09-19T12:19:56;99659.25;;;23.20;86.14
30724;BME280;17473;52.286;20.930;2023-09-19T12:22:23;99667.50;;;23.13;86.11
30724;BME280;17473;52.286;20.930;2023-09-19T12:24:52;99664.06;;;22.77;87.34
30724;BME280;17473;52.286;20.930;2023-09-19T12:27:21;99661.31;;;22.78;88.04
30724;BME280;17473;52.286;20.930;2023-09-19T12:29:49;99666.69;;;22.78;87.96
30724;BME280;17473;52.286;20.930;2023-09-19T12:32:17;99670.56;;;22.68;88.43
30724;BME280;17473;52.286;20.930;2023-09-19T12:34:53;99670.06;;;22.54;88.97
30724;BME280;17473;52.286;20.930;2023-09-19T12:37:22;99667.63;;;22.44;90.00
30724;BME280;17473;52.286;20.930;2023-09-19T12:39:52;99668.72;;;22.35;90.58
30724;BME280;17473;52.286;20.930;2023-09-19T12:42:26;99667.47;;;22.50;90.49
30724;BME280;17473;52.286;20.930;2023-09-19T12:44:59;99669.94;;;22.58;90.52
30724;BME280;17473;52.286;20.930;2023-09-19T12:47:28;99670.53;;;22.35;91.58
30724;BME280;17473;52.286;20.930;2023-09-19T12:50:06;99669.41;;;22.44;92.19
30724;BME280;17473;52.286;20.930;2023-09-19T12:52:37;99671.84;;;22.55;91.91
30724;BME280;17473;52.286;20.930;2023-09-19T12:55:04;99666.78;;;22.42;91.40
30724;BME280;17473;52.286;20.930;2023-09-19T12:57:34;99672.22;;;22.41;91.75
30724;BME280;17473;52.286;20.930;2023-09-19T13:00:06;99672.97;;;22.46;91.91
30724;BME280;17473;52.286;20.930;2023-09-19T13:02:34;99670.47;;;22.36;92.72
30724;BME280;17473;52.286;20.930;2023-09-19T13:05:01;99664.34;;;22.31;92.56
30724;BME280;17473;52.286;20.930;2023-09-19T13:07:44;99667.06;;;22.30;92.95
30724;BME280;17473;52.286;20.930;2023-09-19T13:10:16;99667.28;;;22.57;91.88
30724;BME280;17473;52.286;20.930;2023-09-19T13:12:44;99672.72;;;22.55;92.86
30724;BME280;17473;52.286;20.930;2023-09-19T13:15:15;99665.19;;;22.68;91.89
30724;BME280;17473;52.286;20.930;2023-09-19T13:17:48;99664.84;;;22.47;92.41
30724;BME280;17473;52.286;20.930;2023-09-19T13:20:26;99670.38;;;22.41;92.81
30724;BME280;17473;52.286;20.930;2023-09-19T13:22:55;99674.44;;;22.58;91.97
30724;BME280;17473;52.286;20.930;2023-09-19T13:25:28;99662.75;;;22.59;91.62
30724;BME280;17473;52.286;20.930;2023-09-19T13:27:58;99661.97;;;22.55;93.05
30724;BME280;17473;52.286;20.930;2023-09-19T13:30:27;99667.81;;;22.70;92.83
30724;BME280;17473;52.286;20.930;2023-09-19T13:33:10;99677.66;;;22.72;92.55
30724;BME280;17473;52.286;20.930;2023-09-19T13:35:39;99678.38;;;22.77;92.13
30724;BME280;17473;52.286;20.930;2023-09-19T13:38:09;99676.16;;;22.60;93.18
30724;BME280;17473;52.286;20.930;2023-09-19T13:40:36;99680.22;;;22.77;92.96
30724;BME280;17473;52.286;20.930;2023-09-19T13:43:06;99669.44;;;22.77;93.28
30724;BME280;17473;52.286;20.930;2023-09-19T13:45:34;99677.59;;;22.74;93.48
30724;BME280;17473;52.286;20.930;2023-09-19T13:48:01;99675.66;;;22.79;93.10
30724;BME280;17473;52.286;20.930;2023-09-19T13:50:28;99680.84;;;22.52;94.61
30724;BME280;17473;52.286;20.930;2023-09-19T13:52:56;99673.69;;;22.53;93.82
30724;BME280;17473;52.286;20.930;2023-09-19T13:55:24;99676.81;;;22.70;93.83
30724;BME280;17473;52.286;20.930;2023-09-19T13:57:52;99681.47;;;22.63;94.53
30724;BME280;17473;52.286;20.930;2023-09-19T14:00:23;99676.81;;;22.70;94.20